createdAt,value
2023-11-10T00:00:03.039Z,3.17
2023-11-10T00:02:47.617Z,4.63
2023-11-10T00:05:26.359Z,2.53
2023-11-10T00:08:20.049Z,2.50
2023-11-10T00:11:05.075Z,2.77
2023-11-10T00:13:45.185Z,3.30
2023-11-10T00:16:15.936Z,3.00
2023-11-10T00:18:56.153Z,2.27
2023-11-10T00:21:33.865Z,2.00
2023-11-10T00:24:08.794Z,2.47
2023-11-10T00:26:55.771Z,3.10
2023-11-10T00:29:26.321Z,1.90
2023-11-10T00:32:00.284Z,1.90
2023-11-10T00:34:33.561Z,1.83
2023-11-10T00:37:08.337Z,2.03
2023-11-10T00:39:52.690Z,1.23
2023-11-10T00:42:26.517Z,1.50
2023-11-10T00:45:12.836Z,2.50
2023-11-10T00:47:44.353Z,1.47
2023-11-10T00:50:17.371Z,1.40
2023-11-10T00:52:48.767Z,25.30
2023-11-10T00:55:21.160Z,36.93
2023-11-10T00:57:59.990Z,7.67
2023-11-10T01:00:36.104Z,4.40
2023-11-10T01:03:12.917Z,2.33
2023-11-10T01:05:42.534Z,2.37
2023-11-10T01:08:16.328Z,1.47
2023-11-10T01:10:48.604Z,1.53
2023-11-10T01:13:27.043Z,2.10
2023-11-10T01:16:00.225Z,1.80
2023-11-10T01:18:42.648Z,1.30
2023-11-10T01:21:14.780Z,1.90
2023-11-10T01:26:22.783Z,1.57
2023-11-10T01:28:58.458Z,1.87
2023-11-10T01:31:29.405Z,1.70
2023-11-10T01:34:11.816Z,1.87
2023-11-10T01:37:01.041Z,1.90
2023-11-10T01:39:38.076Z,1.93
2023-11-10T01:42:15.861Z,1.33
2023-11-10T01:44:49.624Z,1.27
2023-11-10T01:47:24.380Z,2.30
2023-11-10T01:49:56.030Z,1.80
2023-11-10T01:52:41.029Z,1.77
2023-11-10T01:55:20.199Z,1.50
2023-11-10T01:58:00.792Z,1.43
2023-11-10T02:00:35.833Z,1.50
2023-11-10T02:03:07.290Z,1.70
2023-11-10T02:05:41.474Z,3.03
2023-11-10T02:08:22.221Z,1.40
2023-11-10T02:10:53.295Z,1.07
2023-11-10T02:13:26.920Z,1.67
2023-11-10T02:16:01.687Z,1.50
2023-11-10T02:18:32.122Z,2.03
2023-11-10T02:21:07.056Z,2.17
2023-11-10T02:23:41.577Z,1.53
2023-11-10T02:26:25.145Z,2.03
2023-11-10T02:28:56.648Z,2.03
2023-11-10T02:31:28.176Z,2.77
2023-11-10T02:33:59.089Z,1.80
2023-11-10T02:39:22.186Z,2.23
2023-11-10T02:41:59.118Z,2.70
2023-11-10T02:44:30.779Z,2.40
2023-11-10T02:47:06.037Z,2.00
2023-11-10T02:49:49.341Z,2.80
2023-11-10T02:52:19.471Z,3.37
2023-11-10T02:54:51.634Z,3.07
2023-11-10T02:57:33.579Z,3.17
2023-11-10T03:00:14.247Z,2.43
2023-11-10T03:02:46.497Z,4.03
2023-11-10T03:05:24.871Z,2.30
2023-11-10T03:08:00.034Z,2.40
2023-11-10T03:10:34.234Z,2.43
2023-11-10T03:13:09.491Z,2.47
2023-11-10T03:15:45.034Z,2.40
2023-11-10T03:18:22.120Z,2.03
2023-11-10T03:20:53.160Z,3.43
2023-11-10T03:23:27.163Z,3.00
2023-11-10T03:25:56.426Z,4.13
2023-11-10T03:28:31.746Z,2.73
2023-11-10T03:31:06.502Z,2.07
2023-11-10T03:33:43.001Z,3.07
2023-11-10T03:36:14.055Z,3.13
2023-11-10T03:38:59.418Z,3.08
2023-11-10T03:41:36.468Z,3.63
2023-11-10T03:44:11.031Z,2.70
2023-11-10T03:46:44.250Z,2.60
2023-11-10T03:49:30.739Z,2.80
2023-11-10T03:52:08.035Z,3.67
2023-11-10T03:54:39.087Z,2.60
2023-11-10T03:57:14.792Z,3.27
2023-11-10T03:59:52.005Z,2.30
2023-11-10T04:02:24.894Z,3.50
2023-11-10T04:07:34.284Z,2.97
2023-11-10T04:10:13.979Z,3.33
2023-11-10T04:12:45.621Z,3.93
2023-11-10T04:18:06.251Z,2.30
2023-11-10T04:20:42.578Z,2.77
2023-11-10T04:23:25.386Z,2.67
2023-11-10T04:25:56.054Z,2.30
2023-11-10T04:28:25.930Z,2.60
2023-11-10T04:31:06.216Z,4.22
2023-11-10T04:33:43.662Z,2.50
2023-11-10T04:36:15.693Z,2.80
2023-11-10T04:38:59.397Z,2.40
2023-11-10T04:41:35.461Z,3.17
2023-11-10T04:44:08.232Z,2.20
2023-11-10T04:46:53.841Z,3.10
2023-11-10T04:49:27.981Z,2.10
2023-11-10T04:52:12.885Z,2.40
2023-11-10T04:54:52.060Z,2.50
2023-11-10T04:57:33.953Z,2.27
2023-11-10T05:00:03.537Z,2.67
2023-11-10T05:02:35.260Z,2.30
2023-11-10T05:07:59.175Z,3.23
2023-11-10T05:10:32.966Z,1.87
2023-11-10T05:13:05.651Z,2.23
2023-11-10T05:15:46.598Z,2.37
2023-11-10T05:21:29.465Z,1.77
2023-11-10T05:24:04.171Z,2.23
2023-11-10T05:26:37.422Z,1.80
2023-11-10T05:29:06.794Z,1.77
2023-11-10T05:31:43.378Z,2.70
2023-11-10T05:34:21.378Z,1.57
2023-11-10T05:37:02.254Z,2.10
2023-11-10T05:39:37.606Z,1.60
2023-11-10T05:42:19.999Z,1.67
2023-11-10T05:44:58.902Z,2.38
2023-11-10T05:47:30.380Z,3.97
2023-11-10T05:50:11.762Z,5.50
2023-11-10T05:52:54.494Z,3.33
2023-11-10T05:58:06.251Z,3.27
2023-11-10T06:00:41.075Z,2.43
2023-11-10T06:03:29.942Z,3.07
2023-11-10T06:06:00.789Z,2.67
2023-11-10T06:08:39.355Z,2.15
2023-11-10T06:11:45.627Z,2.80
2023-11-10T06:14:26.254Z,1.70
2023-11-10T06:16:57.422Z,2.17
2023-11-10T06:19:34.487Z,2.67
2023-11-10T06:22:05.322Z,1.97
2023-11-10T06:24:38.282Z,1.73
2023-11-10T06:27:20.348Z,1.90
2023-11-10T06:29:54.677Z,1.70
2023-11-10T06:32:27.624Z,3.40
2023-11-10T06:35:07.469Z,3.40
2023-11-10T06:37:53.190Z,3.20
2023-11-10T06:40:31.910Z,3.17
2023-11-10T06:43:13.027Z,2.20
2023-11-10T06:45:48.236Z,2.83
2023-11-10T06:48:25.413Z,2.00
2023-11-10T06:50:57.309Z,1.60
2023-11-10T06:56:10.832Z,1.87
2023-11-10T06:58:57.956Z,2.37
2023-11-10T07:01:39.450Z,2.47
2023-11-10T07:04:14.670Z,2.33
2023-11-10T07:06:49.471Z,2.77
2023-11-10T07:09:33.077Z,2.17
2023-11-10T07:12:11.161Z,2.47
2023-11-10T07:14:46.518Z,2.17
2023-11-10T07:17:19.124Z,3.03
2023-11-10T07:19:52.918Z,2.17
2023-11-10T07:22:37.336Z,2.13
2023-11-10T07:25:10.550Z,2.13
2023-11-10T07:27:47.680Z,1.80
2023-11-10T07:30:23.387Z,1.80
2023-11-10T07:32:56.237Z,1.60
2023-11-10T07:35:37.892Z,1.60
2023-11-10T07:38:12.888Z,2.03
2023-11-10T07:40:45.105Z,2.03
2023-11-10T07:43:25.790Z,3.23
2023-11-10T07:45:57.612Z,1.47
2023-11-10T07:51:15.649Z,2.63
2023-11-10T07:53:50.272Z,2.70
2023-11-10T07:56:28.453Z,2.60
2023-11-10T07:59:10.080Z,2.47
2023-11-10T08:01:47.086Z,3.27
2023-11-10T08:04:20.003Z,2.60
2023-11-10T08:06:53.857Z,2.03
2023-11-10T08:09:28.161Z,1.90
2023-11-10T08:11:59.914Z,2.03
2023-11-10T08:14:37.441Z,1.87
2023-11-10T08:17:11.542Z,1.30
2023-11-10T08:19:49.678Z,2.37
2023-11-10T08:22:22.187Z,1.60
2023-11-10T08:24:56.940Z,1.37
2023-11-10T08:27:40.120Z,1.87
2023-11-10T08:30:19.151Z,1.37
2023-11-10T08:32:51.056Z,1.73
2023-11-10T08:35:22.523Z,1.30
2023-11-10T08:38:10.199Z,2.03
2023-11-10T08:40:43.360Z,1.30
2023-11-10T08:43:20.381Z,1.83
2023-11-10T08:46:03.861Z,1.50
2023-11-10T08:48:38.727Z,1.33
2023-11-10T08:51:10.939Z,1.20
2023-11-10T08:53:43.503Z,1.35
2023-11-10T08:56:16.552Z,2.00
2023-11-10T08:59:08.465Z,2.10
2023-11-10T09:01:39.153Z,1.50
2023-11-10T09:04:21.842Z,1.05
2023-11-10T09:06:57.830Z,1.00
2023-11-10T09:09:41.708Z,1.33
2023-11-10T09:12:23.773Z,0.80
2023-11-10T09:14:56.554Z,1.53
2023-11-10T09:17:25.875Z,2.53
2023-11-10T09:20:13.647Z,1.57
2023-11-10T09:22:45.995Z,1.43
2023-11-10T09:25:22.368Z,1.67
2023-11-10T09:28:06.674Z,1.90
2023-11-10T09:30:42.517Z,1.70
2023-11-10T09:33:12.446Z,1.83
2023-11-10T09:35:47.007Z,1.13
2023-11-10T09:38:23.222Z,7.47
2023-11-10T09:40:54.545Z,5.33
2023-11-10T09:46:23.587Z,1.10
2023-11-10T09:48:58.541Z,2.58
2023-11-10T09:51:36.073Z,3.13
2023-11-10T09:54:11.714Z,4.90
2023-11-10T09:56:47.885Z,3.07
2023-11-10T09:59:29.384Z,2.13
2023-11-10T10:02:07.264Z,1.35
2023-11-10T10:04:40.260Z,1.90
2023-11-10T10:07:18.267Z,1.17
2023-11-10T10:09:56.817Z,1.40
2023-11-10T10:12:36.725Z,1.77
2023-11-10T10:15:09.854Z,1.50
2023-11-10T10:17:39.909Z,1.80
2023-11-10T10:20:15.547Z,1.37
2023-11-10T10:22:55.739Z,2.23
2023-11-10T10:25:25.112Z,1.33
2023-11-10T10:28:10.714Z,1.00
2023-11-10T10:31:15.879Z,1.27
2023-11-10T10:33:51.789Z,0.90
2023-11-10T10:36:27.529Z,0.80
2023-11-10T10:39:14.082Z,0.93
2023-11-10T10:41:43.036Z,0.80
2023-11-10T10:44:29.806Z,1.07
2023-11-10T10:47:09.044Z,1.27
2023-11-10T10:49:46.623Z,1.90
2023-11-10T10:52:26.385Z,1.07
2023-11-10T10:54:59.780Z,1.73
2023-11-10T10:57:32.485Z,2.33
2023-11-10T11:00:19.167Z,1.00
2023-11-10T11:03:04.514Z,1.93
2023-11-10T11:05:55.897Z,1.10
2023-11-10T11:09:04.212Z,1.30
2023-11-10T11:12:36.643Z,1.97
2023-11-10T11:15:40.772Z,1.40
2023-11-10T11:18:37.770Z,1.10
2023-11-10T11:21:24.875Z,0.47
2023-11-10T11:24:02.619Z,2.90
2023-11-10T11:26:35.420Z,1.80
2023-11-10T11:29:14.637Z,1.63
2023-11-10T11:31:53.650Z,1.30
2023-11-10T11:34:28.050Z,0.80
2023-11-10T11:37:00.226Z,1.13
2023-11-10T11:39:34.535Z,0.77
2023-11-10T11:42:11.790Z,1.00
2023-11-10T11:44:47.105Z,1.13
2023-11-10T11:47:25.125Z,1.90
2023-11-10T11:50:08.568Z,1.70
2023-11-10T11:52:37.641Z,1.63
2023-11-10T11:55:10.153Z,1.30
2023-11-10T11:57:47.180Z,11.73
2023-11-10T12:00:34.883Z,1.57
2023-11-10T12:03:10.708Z,1.10
2023-11-10T12:05:44.267Z,0.63
2023-11-10T12:08:21.391Z,0.93
2023-11-10T12:11:03.782Z,0.60
2023-11-10T12:13:44.395Z,0.77
2023-11-10T12:16:29.353Z,1.60
2023-11-10T12:19:12.388Z,1.37
2023-11-10T12:22:02.305Z,0.70
2023-11-10T12:24:41.945Z,0.67
2023-11-10T12:27:31.935Z,0.83
2023-11-10T12:30:24.060Z,1.03
2023-11-10T12:32:59.682Z,0.40
2023-11-10T12:35:34.835Z,0.77
2023-11-10T12:38:21.205Z,0.30
2023-11-10T12:41:08.435Z,0.40
2023-11-10T12:43:50.657Z,0.60
2023-11-10T12:46:25.434Z,0.37
2023-11-10T12:49:07.624Z,0.47
2023-11-10T12:51:40.784Z,0.50
2023-11-10T12:54:10.162Z,0.70
2023-11-10T12:56:46.577Z,0.40
2023-11-10T12:59:19.406Z,0.30
2023-11-10T13:01:55.686Z,0.75
2023-11-10T13:04:38.341Z,1.30
2023-11-10T13:07:17.629Z,1.03
2023-11-10T13:09:50.988Z,0.70
2023-11-10T13:12:26.460Z,0.70
2023-11-10T13:15:00.707Z,0.80
2023-11-10T13:17:33.536Z,1.37
2023-11-10T13:20:08.128Z,1.20
2023-11-10T13:22:42.141Z,0.67
2023-11-10T13:25:22.694Z,0.50
2023-11-10T13:27:53.027Z,0.90
2023-11-10T13:30:24.409Z,0.30
2023-11-10T13:33:00.521Z,0.60
2023-11-10T13:35:35.378Z,0.87
2023-11-10T13:38:08.266Z,0.90
2023-11-10T13:40:45.706Z,0.73
2023-11-10T13:43:26.912Z,0.30
2023-11-10T13:46:05.235Z,1.23
2023-11-10T13:48:47.580Z,0.47
2023-11-10T13:51:22.852Z,0.80
2023-11-10T13:54:12.955Z,1.10
2023-11-10T13:56:47.627Z,0.60
2023-11-10T13:59:25.820Z,0.70
2023-11-10T14:02:04.641Z,0.60
2023-11-10T14:04:36.203Z,1.00
2023-11-10T14:07:14.793Z,0.50
2023-11-10T14:09:45.254Z,0.83
2023-11-10T14:12:18.192Z,0.50
2023-11-10T14:17:39.682Z,0.50
2023-11-10T14:20:28.156Z,5.50
2023-11-10T14:22:59.761Z,3.83
2023-11-10T14:25:35.733Z,4.83
2023-11-10T14:28:17.727Z,2.07
2023-11-10T14:30:49.345Z,1.63
2023-11-10T14:36:05.399Z,1.57
2023-11-10T14:38:55.783Z,0.53
2023-11-10T14:41:36.752Z,0.90
2023-11-10T14:44:11.461Z,1.37
2023-11-10T14:46:50.637Z,5.43
2023-11-10T14:49:29.494Z,5.43
2023-11-10T14:52:21.817Z,2.03
2023-11-10T14:54:55.615Z,0.90
2023-11-10T14:57:25.320Z,1.08
2023-11-10T15:00:02.717Z,1.17
2023-11-10T15:02:32.930Z,0.97
2023-11-10T15:05:18.035Z,2.07
2023-11-10T15:07:52.977Z,1.10
2023-11-10T15:10:25.077Z,1.23
2023-11-10T15:13:01.773Z,0.80
2023-11-10T15:15:46.772Z,0.70
2023-11-10T15:18:22.779Z,1.20
2023-11-10T15:21:01.331Z,1.10
2023-11-10T15:23:29.940Z,0.90
2023-11-10T15:25:58.658Z,1.87
2023-11-10T15:28:39.584Z,1.23
2023-11-10T15:31:16.490Z,1.73
2023-11-10T15:33:56.968Z,1.40
2023-11-10T15:36:31.485Z,2.47
2023-11-10T15:39:16.293Z,1.33
2023-11-10T15:41:48.794Z,2.70
2023-11-10T15:47:14.543Z,1.70
2023-11-10T15:49:48.209Z,2.00
2023-11-10T15:52:20.390Z,1.97
2023-11-10T15:54:52.684Z,2.00
2023-11-10T15:57:26.877Z,2.10
2023-11-10T16:00:07.447Z,2.13
2023-11-10T16:02:38.665Z,1.70
2023-11-10T16:07:49.240Z,0.90
2023-11-10T16:10:29.154Z,1.50
2023-11-10T16:13:07.396Z,1.10
2023-11-10T16:15:42.480Z,1.60
2023-11-10T16:18:15.604Z,1.80
2023-11-10T16:20:46.589Z,1.57
2023-11-10T16:23:26.154Z,2.15
2023-11-10T16:26:06.253Z,3.92
2023-11-10T16:28:51.742Z,3.20
2023-11-10T16:31:22.818Z,2.77
2023-11-10T16:33:53.071Z,9.82
2023-11-10T16:36:29.940Z,5.93
2023-11-10T16:39:11.070Z,6.23
2023-11-10T16:41:51.528Z,4.33
2023-11-10T16:44:46.849Z,3.17
2023-11-10T16:47:38.470Z,3.53
2023-11-10T16:50:08.605Z,4.35
2023-11-10T16:52:42.582Z,6.63
2023-11-10T16:55:16.543Z,5.43
2023-11-10T16:57:48.466Z,5.17
2023-11-10T17:00:24.430Z,6.67
2023-11-10T17:03:14.993Z,8.77
2023-11-10T17:05:54.862Z,7.03
2023-11-10T17:08:35.092Z,4.47
2023-11-10T17:11:08.213Z,6.87
2023-11-10T17:13:39.651Z,10.27
2023-11-10T17:16:15.105Z,6.47
2023-11-10T17:18:59.004Z,5.90
2023-11-10T17:21:37.483Z,4.67
2023-11-10T17:24:15.545Z,4.50
2023-11-10T17:26:57.191Z,4.97
2023-11-10T17:32:10.999Z,4.17
2023-11-10T17:34:42.515Z,4.40
2023-11-10T17:37:16.055Z,5.03
2023-11-10T17:39:52.660Z,4.47
2023-11-10T17:42:27.422Z,4.90
2023-11-10T17:45:07.604Z,3.40
2023-11-10T17:47:51.820Z,3.20
2023-11-10T17:50:24.967Z,4.00
2023-11-10T17:53:02.183Z,3.78
2023-11-10T17:55:37.377Z,3.10
2023-11-10T17:58:17.554Z,3.00
2023-11-10T18:00:48.573Z,7.20
2023-11-10T18:03:18.087Z,18.85
2023-11-10T18:05:53.212Z,17.40
2023-11-10T18:08:29.063Z,5.17
2023-11-10T18:11:05.696Z,14.23
2023-11-10T18:13:40.699Z,4.70
2023-11-10T18:16:20.432Z,3.90
2023-11-10T18:19:01.419Z,4.63
2023-11-10T18:21:41.691Z,5.17
2023-11-10T18:24:16.010Z,8.20
2023-11-10T18:26:53.227Z,12.57
2023-11-10T18:29:35.838Z,10.27
2023-11-10T18:32:15.466Z,6.40
2023-11-10T18:34:54.201Z,6.03
2023-11-10T18:37:33.884Z,10.63
2023-11-10T18:40:06.390Z,9.43
2023-11-10T18:42:46.628Z,3.60
2023-11-10T18:45:26.340Z,3.20
2023-11-10T18:48:00.294Z,3.28
2023-11-10T18:50:50.041Z,2.70
2023-11-10T18:53:31.922Z,8.33
2023-11-10T18:56:13.670Z,7.10
2023-11-10T18:58:43.530Z,4.00
2023-11-10T19:01:14.380Z,3.30
2023-11-10T19:04:01.149Z,5.00
2023-11-10T19:06:31.613Z,4.27
2023-11-10T19:09:10.223Z,3.33
2023-11-10T19:11:41.376Z,4.07
2023-11-10T19:14:21.397Z,6.33
2023-11-10T19:17:00.621Z,3.00
2023-11-10T19:19:41.272Z,5.70
2023-11-10T19:22:22.057Z,5.37
2023-11-10T19:25:00.355Z,3.77
2023-11-10T19:27:32.694Z,8.17
2023-11-10T19:30:10.735Z,4.13
2023-11-10T19:32:56.203Z,3.63
2023-11-10T19:35:39.800Z,4.00
2023-11-10T19:38:10.263Z,5.57
2023-11-10T19:40:45.508Z,11.23
2023-11-10T19:43:18.762Z,6.50
2023-11-10T19:46:03.017Z,5.73
2023-11-10T19:48:47.135Z,4.23
2023-11-10T19:57:01.203Z,13.43
2023-11-10T19:59:38.480Z,7.95
2023-11-10T20:02:07.460Z,5.57
2023-11-10T20:04:41.806Z,5.60
2023-11-10T20:07:22.352Z,5.87
2023-11-10T20:09:56.419Z,5.47
2023-11-10T20:12:29.086Z,6.50
2023-11-10T20:15:01.710Z,4.70
2023-11-10T20:17:30.364Z,4.33
2023-11-10T20:20:08.632Z,6.03
2023-11-10T20:22:42.862Z,3.93
2023-11-10T20:25:12.230Z,3.47
2023-11-10T20:27:59.418Z,2.20
2023-11-10T20:30:37.682Z,1.23
2023-11-10T20:33:10.956Z,2.30
2023-11-10T20:35:45.011Z,3.73
2023-11-10T20:38:17.073Z,5.47
2023-11-10T20:40:51.492Z,3.53
2023-11-10T20:43:22.857Z,4.00
2023-11-10T20:46:05.898Z,2.17
2023-11-10T20:48:35.875Z,3.27
2023-11-10T20:51:07.733Z,4.03
2023-11-10T20:53:39.328Z,3.97
2023-11-10T20:56:15.503Z,2.95
2023-11-10T20:58:47.697Z,5.87
2023-11-10T21:01:23.706Z,3.00
2023-11-10T21:03:52.538Z,3.17
2023-11-10T21:06:28.364Z,4.00
2023-11-10T21:09:11.274Z,5.17
2023-11-10T21:11:49.677Z,2.93
2023-11-10T21:14:23.273Z,3.53
2023-11-10T21:16:56.110Z,5.07
2023-11-10T21:19:32.097Z,8.40
2023-11-10T21:22:07.182Z,8.30
2023-11-10T21:24:49.916Z,6.57
2023-11-10T21:27:22.460Z,5.83
2023-11-10T21:30:01.026Z,5.00
2023-11-10T21:32:40.063Z,5.03
2023-11-10T21:35:11.035Z,8.63
2023-11-10T21:37:42.827Z,12.82
2023-11-10T21:40:23.249Z,5.57
2023-11-10T21:43:00.987Z,6.93
2023-11-10T21:45:36.929Z,6.07
2023-11-10T21:48:19.190Z,7.77
2023-11-10T21:50:54.367Z,6.83
2023-11-10T21:53:40.899Z,5.97
2023-11-10T21:56:24.745Z,4.80
2023-11-10T21:58:55.337Z,5.83
2023-11-10T22:01:26.019Z,7.97
2023-11-10T22:03:59.160Z,4.73
2023-11-10T22:06:30.549Z,5.55
2023-11-10T22:09:00.948Z,4.35
2023-11-10T22:11:31.944Z,9.60
2023-11-10T22:14:04.528Z,4.50
2023-11-10T22:16:45.542Z,4.57
2023-11-10T22:19:16.765Z,4.70
2023-11-10T22:21:51.733Z,5.35
2023-11-10T22:24:25.459Z,14.20
2023-11-10T22:26:57.237Z,12.07
2023-11-10T22:32:03.572Z,4.07
2023-11-10T22:34:38.930Z,3.17
2023-11-10T22:37:12.855Z,7.27
2023-11-10T22:39:42.638Z,4.30
2023-11-10T22:42:19.981Z,6.00
2023-11-10T22:44:50.873Z,7.27
2023-11-10T22:50:08.928Z,8.83
2023-11-10T22:52:48.189Z,9.82
2023-11-10T22:55:30.108Z,9.67
2023-11-10T23:00:54.215Z,3.23
2023-11-10T23:03:30.982Z,2.77
2023-11-10T23:06:01.547Z,3.47
2023-11-10T23:08:33.795Z,1.88
2023-11-10T23:11:17.927Z,2.10
2023-11-10T23:13:54.674Z,3.50
2023-11-10T23:16:36.562Z,2.43
2023-11-10T23:19:07.519Z,4.38
2023-11-10T23:21:44.365Z,2.28
2023-11-10T23:24:18.093Z,1.97
2023-11-10T23:29:23.864Z,1.47
2023-11-10T23:31:52.349Z,2.55
2023-11-10T23:34:28.156Z,2.63
2023-11-10T23:37:00.255Z,2.83
2023-11-10T23:39:42.262Z,2.00
2023-11-10T23:42:11.988Z,2.20
2023-11-10T23:44:45.653Z,2.20
2023-11-10T23:47:30.701Z,1.87
2023-11-10T23:50:12.441Z,2.60
2023-11-10T23:52:47.861Z,2.15
2023-11-10T23:55:18.136Z,1.90
2023-11-10T23:57:48.896Z,1.73
